createdAt,value
2018-06-10T00:01:54.370Z,17.90
2018-06-10T00:04:22.822Z,18.00
2018-06-10T00:06:51.229Z,17.90
2018-06-10T00:09:19.698Z,17.90
2018-06-10T00:11:48.108Z,17.90
2018-06-10T00:14:16.537Z,17.80
2018-06-10T00:16:44.942Z,17.90
2018-06-10T00:19:13.402Z,18.00
2018-06-10T00:21:41.849Z,18.00
2018-06-10T00:24:10.501Z,18.00
2018-06-10T00:31:40.774Z,17.90
2018-06-10T00:34:09.197Z,17.90
2018-06-10T00:36:37.709Z,17.90
2018-06-10T00:39:08.030Z,17.90
2018-06-10T00:41:37.140Z,17.90
2018-06-10T00:44:06.260Z,17.90
2018-06-10T00:46:34.702Z,17.90
2018-06-10T00:49:03.276Z,17.80
2018-06-10T00:51:31.712Z,17.80
2018-06-10T00:54:00.178Z,17.80
2018-06-10T00:56:39.981Z,17.80
2018-06-10T00:59:08.428Z,17.80
2018-06-10T01:01:36.937Z,17.80
2018-06-10T01:04:05.428Z,17.80
2018-06-10T01:06:33.856Z,17.70
2018-06-10T01:09:02.601Z,17.70
2018-06-10T01:11:31.041Z,17.80
2018-06-10T01:13:59.460Z,17.80
2018-06-10T01:16:28.213Z,17.70
2018-06-10T01:18:56.756Z,17.80
2018-06-10T01:21:25.225Z,17.80
2018-06-10T01:23:53.625Z,17.80
2018-06-10T01:26:27.305Z,17.80
2018-06-10T01:28:55.735Z,17.80
2018-06-10T01:31:24.197Z,17.80
2018-06-10T01:33:52.631Z,17.90
2018-06-10T01:36:21.095Z,17.90
2018-06-10T01:38:49.697Z,17.90
2018-06-10T01:41:18.169Z,17.90
2018-06-10T01:43:46.622Z,17.90
2018-06-10T01:46:15.060Z,17.80
2018-06-10T01:48:43.535Z,17.80
2018-06-10T01:51:11.981Z,17.70
2018-06-10T01:53:40.467Z,17.60
2018-06-10T01:56:08.969Z,17.50
2018-06-10T01:58:37.489Z,17.40
2018-06-10T02:03:34.126Z,17.50
2018-06-10T02:06:02.609Z,17.50
2018-06-10T02:08:31.086Z,17.30
2018-06-10T02:10:59.786Z,17.30
2018-06-10T02:13:28.237Z,17.40
2018-06-10T02:15:56.736Z,17.30
2018-06-10T02:18:25.424Z,17.30
2018-06-10T02:20:53.895Z,17.30
2018-06-10T02:23:22.334Z,17.30
2018-06-10T02:25:50.773Z,17.30
2018-06-10T02:28:19.245Z,17.30
2018-06-10T02:30:47.934Z,17.30
2018-06-10T02:33:16.418Z,17.40
2018-06-10T02:35:45.128Z,17.40
2018-06-10T02:38:13.579Z,17.40
2018-06-10T02:40:42.048Z,17.40
2018-06-10T02:43:10.736Z,17.40
2018-06-10T02:45:39.235Z,17.40
2018-06-10T02:48:07.707Z,17.30
2018-06-10T02:50:36.153Z,17.30
2018-06-10T02:53:04.594Z,17.40
2018-06-10T02:55:33.042Z,17.40
2018-06-10T02:58:01.493Z,17.40
2018-06-10T03:00:29.957Z,17.40
2018-06-10T03:02:58.440Z,17.40
2018-06-10T03:07:55.086Z,17.30
2018-06-10T03:10:23.535Z,17.30
2018-06-10T03:12:51.937Z,17.30
2018-06-10T03:15:20.382Z,17.40
2018-06-10T03:17:48.859Z,17.40
2018-06-10T03:20:17.265Z,17.40
2018-06-10T03:22:45.936Z,17.40
2018-06-10T03:25:14.391Z,17.50
2018-06-10T03:27:42.842Z,17.50
2018-06-10T03:30:11.261Z,17.50
2018-06-10T03:32:39.717Z,17.50
2018-06-10T03:37:36.281Z,17.50
2018-06-10T03:40:05.109Z,17.50
2018-06-10T03:42:33.808Z,17.50
2018-06-10T03:45:02.270Z,17.60
2018-06-10T03:47:30.953Z,17.60
2018-06-10T03:49:59.422Z,17.60
2018-06-10T03:52:28.084Z,17.60
2018-06-10T03:54:56.566Z,17.70
2018-06-10T03:57:25.006Z,17.70
2018-06-10T03:59:53.501Z,17.90
2018-06-10T04:02:21.981Z,17.90
2018-06-10T04:04:50.466Z,17.90
2018-06-10T04:07:18.934Z,18.00
2018-06-10T04:09:47.368Z,18.00
2018-06-10T04:14:43.982Z,18.20
2018-06-10T04:17:12.734Z,18.30
2018-06-10T04:19:41.233Z,18.40
2018-06-10T04:22:09.701Z,18.40
2018-06-10T04:24:38.157Z,18.40
2018-06-10T04:27:06.603Z,18.40
2018-06-10T04:29:35.121Z,18.70
2018-06-10T04:32:03.597Z,19.50
2018-06-10T04:39:28.382Z,21.90
2018-06-10T04:41:56.845Z,22.30
2018-06-10T04:44:25.293Z,22.50
2018-06-10T04:46:53.728Z,22.70
2018-06-10T04:49:22.265Z,23.00
2018-06-10T04:51:51.212Z,23.20
2018-06-10T04:54:19.666Z,23.50
2018-06-10T04:56:48.133Z,23.60
2018-06-10T04:59:16.573Z,23.80
2018-06-10T05:01:45.261Z,24.20
2018-06-10T05:04:13.718Z,24.80
2018-06-10T05:06:42.201Z,25.10
2018-06-10T05:09:10.637Z,25.30
2018-06-10T05:11:39.082Z,25.60
2018-06-10T05:14:07.752Z,25.80
2018-06-10T05:16:36.270Z,26.00
2018-06-10T05:19:04.796Z,26.50
2018-06-10T05:21:33.242Z,27.10
2018-06-10T05:24:01.943Z,27.50
2018-06-10T05:26:30.381Z,28.00
2018-06-10T05:28:58.844Z,28.70
2018-06-10T05:31:27.272Z,28.60
2018-06-10T05:33:55.744Z,28.80
2018-06-10T05:36:24.186Z,29.20
2018-06-10T05:38:52.657Z,29.70
2018-06-10T05:41:21.117Z,29.90
2018-06-10T05:43:49.629Z,29.90
2018-06-10T05:46:18.522Z,30.40
2018-06-10T05:48:46.977Z,30.60
2018-06-10T05:51:15.445Z,31.20
2018-06-10T05:56:12.277Z,30.90
2018-06-10T05:58:40.705Z,30.60
2018-06-10T06:01:09.441Z,30.60
2018-06-10T06:03:37.925Z,30.60
2018-06-10T06:06:06.799Z,30.70
2018-06-10T06:08:35.276Z,30.40
2018-06-10T06:11:03.776Z,30.10
2018-06-10T06:13:32.257Z,30.20
2018-06-10T06:16:00.743Z,30.70
2018-06-10T06:18:29.274Z,30.80
2018-06-10T06:20:57.778Z,31.00
2018-06-10T06:23:26.296Z,31.30
2018-06-10T06:25:54.794Z,31.60
2018-06-10T06:28:23.325Z,31.30
2018-06-10T06:30:52.024Z,31.00
2018-06-10T06:33:20.544Z,30.30
2018-06-10T06:35:49.009Z,29.40
2018-06-10T06:38:17.445Z,28.30
2018-06-10T06:40:45.966Z,27.50
2018-06-10T06:43:14.418Z,26.60
2018-06-10T06:45:42.910Z,26.20
2018-06-10T06:48:11.361Z,26.10
2018-06-10T06:50:39.893Z,25.70
2018-06-10T06:53:08.370Z,25.50
2018-06-10T06:55:36.890Z,25.20
2018-06-10T06:58:05.421Z,25.00
2018-06-10T07:00:33.888Z,24.80
2018-06-10T07:03:02.425Z,24.30
2018-06-10T07:05:30.893Z,23.90
2018-06-10T07:07:59.444Z,24.00
2018-06-10T07:10:27.930Z,23.80
2018-06-10T07:12:56.465Z,23.60
2018-06-10T07:15:24.969Z,23.60
2018-06-10T07:17:53.720Z,23.70
2018-06-10T07:20:22.240Z,23.60
2018-06-10T07:25:18.918Z,23.70
2018-06-10T07:27:47.641Z,23.60
2018-06-10T07:30:16.141Z,23.50
2018-06-10T07:32:44.630Z,23.60
2018-06-10T07:35:13.136Z,23.80
2018-06-10T07:37:41.665Z,24.00
2018-06-10T07:40:10.153Z,23.90
2018-06-10T07:42:38.687Z,23.90
2018-06-10T07:45:07.160Z,23.90
2018-06-10T07:50:03.846Z,24.50
2018-06-10T07:52:32.913Z,24.60
2018-06-10T07:57:29.555Z,24.20
2018-06-10T07:59:58.078Z,24.40
2018-06-10T08:02:26.597Z,24.80
2018-06-10T08:04:55.094Z,25.00
2018-06-10T08:07:23.585Z,24.60
2018-06-10T08:09:52.061Z,24.30
2018-06-10T08:12:20.561Z,24.50
2018-06-10T08:17:17.210Z,24.40
2018-06-10T08:19:45.755Z,24.30
2018-06-10T08:22:14.249Z,24.20
2018-06-10T08:24:42.773Z,24.10
2018-06-10T08:27:11.290Z,24.00
2018-06-10T08:29:39.785Z,23.80
2018-06-10T08:32:08.241Z,24.00
2018-06-10T08:34:36.718Z,24.30
2018-06-10T08:37:05.297Z,24.40
2018-06-10T08:39:33.789Z,24.40
2018-06-10T08:42:02.515Z,24.40
2018-06-10T08:44:30.994Z,24.90
2018-06-10T08:46:59.486Z,25.30
2018-06-10T08:49:27.950Z,25.80
2018-06-10T08:51:56.437Z,25.60
2018-06-10T08:54:24.955Z,25.20
2018-06-10T08:56:53.517Z,25.20
2018-06-10T08:59:21.982Z,24.90
2018-06-10T09:01:50.523Z,24.80
2018-06-10T09:04:19.030Z,24.70
2018-06-10T09:06:47.558Z,24.70
2018-06-10T09:09:16.109Z,24.70
2018-06-10T09:11:44.628Z,24.60
2018-06-10T09:14:13.172Z,24.50
2018-06-10T09:16:41.684Z,24.60
2018-06-10T09:19:10.246Z,24.90
2018-06-10T09:21:38.766Z,25.00
2018-06-10T09:24:07.275Z,25.00
2018-06-10T09:29:03.973Z,24.60
2018-06-10T09:31:32.454Z,24.70
2018-06-10T09:34:01.193Z,24.90
2018-06-10T09:36:29.706Z,25.00
2018-06-10T09:38:58.229Z,25.00
2018-06-10T09:41:26.734Z,25.00
2018-06-10T09:43:55.230Z,25.00
2018-06-10T09:46:23.750Z,24.90
2018-06-10T09:48:52.230Z,24.80
2018-06-10T09:51:20.725Z,24.40
2018-06-10T09:53:49.224Z,24.50
2018-06-10T09:56:17.720Z,24.60
2018-06-10T09:58:46.187Z,24.50
2018-06-10T10:01:14.663Z,24.40
2018-06-10T10:03:43.149Z,24.40
2018-06-10T10:06:11.579Z,24.70
2018-06-10T10:08:40.105Z,25.10
2018-06-10T10:11:09.274Z,25.60
2018-06-10T10:13:37.765Z,25.70
2018-06-10T10:16:06.238Z,25.80
2018-06-10T10:18:34.685Z,25.70
2018-06-10T10:21:03.234Z,25.60
2018-06-10T10:23:31.684Z,25.80
2018-06-10T10:26:00.377Z,25.80
2018-06-10T10:28:29.084Z,25.50
2018-06-10T10:30:57.557Z,25.30
2018-06-10T10:33:25.983Z,25.30
2018-06-10T10:35:54.432Z,25.00
2018-06-10T10:38:22.920Z,24.90
2018-06-10T10:40:51.393Z,24.90
2018-06-10T10:43:19.861Z,24.70
2018-06-10T10:45:48.314Z,24.60
2018-06-10T10:48:16.769Z,24.70
2018-06-10T10:50:45.270Z,24.80
2018-06-10T10:53:13.985Z,24.90
2018-06-10T10:55:42.461Z,24.90
2018-06-10T10:58:10.935Z,24.80
2018-06-10T11:00:39.366Z,24.80
2018-06-10T11:03:07.815Z,25.10
2018-06-10T11:05:36.278Z,25.30
2018-06-10T11:08:04.783Z,25.50
2018-06-10T11:10:33.296Z,25.50
2018-06-10T11:13:03.254Z,25.50
2018-06-10T11:15:32.448Z,25.80
2018-06-10T11:18:01.480Z,26.20
2018-06-10T11:20:29.919Z,26.70
2018-06-10T11:25:26.546Z,27.10
2018-06-10T11:27:55.009Z,26.80
2018-06-10T11:30:23.476Z,25.90
2018-06-10T11:32:52.699Z,25.30
2018-06-10T11:35:21.406Z,25.00
2018-06-10T11:37:49.876Z,24.80
2018-06-10T11:40:18.353Z,24.60
2018-06-10T11:42:46.795Z,24.50
2018-06-10T11:45:15.285Z,24.60
2018-06-10T11:47:43.747Z,24.70
2018-06-10T11:50:12.226Z,25.00
2018-06-10T11:52:40.685Z,25.10
2018-06-10T11:55:09.153Z,25.20
2018-06-10T11:57:37.666Z,25.10
2018-06-10T12:00:06.150Z,25.20
2018-06-10T12:02:34.889Z,25.40
2018-06-10T12:05:03.421Z,25.40
2018-06-10T12:07:31.884Z,25.20
2018-06-10T12:10:00.352Z,25.20
2018-06-10T12:12:29.113Z,25.00
2018-06-10T12:14:57.546Z,24.90
2018-06-10T12:17:26.032Z,24.70
2018-06-10T12:22:22.727Z,24.60
2018-06-10T12:24:51.196Z,24.50
2018-06-10T12:27:19.675Z,24.50
2018-06-10T12:29:48.155Z,24.50
2018-06-10T12:32:16.601Z,24.60
2018-06-10T12:34:45.074Z,24.70
2018-06-10T12:37:13.548Z,24.80
2018-06-10T12:39:42.005Z,24.70
2018-06-10T12:42:10.497Z,24.60
2018-06-10T12:44:38.971Z,24.70
2018-06-10T12:47:07.471Z,24.70
2018-06-10T12:49:35.946Z,24.70
2018-06-10T12:52:04.463Z,24.90
2018-06-10T12:54:32.893Z,25.10
2018-06-10T12:57:01.362Z,25.20
2018-06-10T12:59:29.813Z,25.20
2018-06-10T13:01:58.266Z,25.60
2018-06-10T13:04:26.761Z,25.70
2018-06-10T13:06:55.235Z,26.00
2018-06-10T13:09:23.690Z,26.30
2018-06-10T13:11:52.126Z,26.40
2018-06-10T13:14:21.477Z,26.60
2018-06-10T13:16:50.524Z,26.40
2018-06-10T13:19:18.962Z,26.40
2018-06-10T13:21:47.457Z,26.50
2018-06-10T13:24:15.897Z,26.40
2018-06-10T13:26:44.773Z,25.60
2018-06-10T13:29:13.468Z,25.70
2018-06-10T13:31:41.941Z,25.80
2018-06-10T13:36:38.597Z,26.20
2018-06-10T13:41:36.234Z,25.60
2018-06-10T13:44:05.175Z,25.60
2018-06-10T13:46:33.618Z,25.60
2018-06-10T13:49:02.181Z,25.40
2018-06-10T13:51:30.649Z,25.30
2018-06-10T13:53:59.197Z,25.10
2018-06-10T13:56:27.597Z,25.10
2018-06-10T13:58:56.456Z,25.50
2018-06-10T14:01:24.918Z,25.50
2018-06-10T14:03:53.389Z,25.70
2018-06-10T14:06:21.851Z,25.70
2018-06-10T14:08:50.614Z,25.90
2018-06-10T14:11:19.191Z,25.80
2018-06-10T14:16:16.050Z,25.50
2018-06-10T14:21:12.668Z,25.90
2018-06-10T14:23:41.156Z,25.80
2018-06-10T14:26:09.648Z,25.80
2018-06-10T14:28:38.117Z,25.80
2018-06-10T14:31:06.625Z,25.90
2018-06-10T14:36:03.271Z,25.90
2018-06-10T14:38:32.081Z,25.80
2018-06-10T14:41:00.561Z,25.80
2018-06-10T14:43:29.041Z,25.80
2018-06-10T14:45:57.567Z,25.50
2018-06-10T14:48:26.054Z,25.40
2018-06-10T14:50:54.518Z,25.20
2018-06-10T14:53:22.975Z,25.20
2018-06-10T14:55:51.477Z,25.10
2018-06-10T14:58:19.943Z,24.80
2018-06-10T15:00:48.492Z,24.70
2018-06-10T15:03:16.972Z,24.70
2018-06-10T15:05:45.448Z,24.70
2018-06-10T15:08:13.925Z,24.80
2018-06-10T15:10:42.378Z,24.80
2018-06-10T15:13:11.201Z,25.00
2018-06-10T15:15:39.689Z,25.20
2018-06-10T15:18:08.177Z,25.10
2018-06-10T15:20:36.654Z,25.30
2018-06-10T15:23:05.217Z,25.30
2018-06-10T15:25:33.953Z,25.10
2018-06-10T15:28:02.401Z,25.00
2018-06-10T15:30:30.865Z,25.10
2018-06-10T15:32:59.863Z,25.10
2018-06-10T15:35:28.361Z,25.20
2018-06-10T15:37:56.790Z,25.20
2018-06-10T15:40:25.247Z,25.30
2018-06-10T15:42:53.793Z,25.20
2018-06-10T15:45:22.258Z,25.10
2018-06-10T15:47:50.716Z,25.20
2018-06-10T15:50:19.193Z,25.40
2018-06-10T15:52:47.658Z,25.70
2018-06-10T15:55:16.118Z,25.80
2018-06-10T15:57:44.564Z,25.90
2018-06-10T16:00:14.049Z,25.90
2018-06-10T16:02:42.489Z,25.90
2018-06-10T16:05:10.973Z,26.10
2018-06-10T16:07:39.434Z,26.10
2018-06-10T16:10:07.906Z,26.10
2018-06-10T16:12:36.363Z,26.20
2018-06-10T16:15:05.095Z,26.10
2018-06-10T16:17:33.537Z,26.20
2018-06-10T16:20:02.024Z,26.10
2018-06-10T16:22:30.477Z,25.90
2018-06-10T16:24:58.925Z,25.90
2018-06-10T16:27:27.392Z,25.90
2018-06-10T16:29:55.921Z,25.90
2018-06-10T16:32:24.401Z,25.90
2018-06-10T16:34:52.899Z,26.10
2018-06-10T16:37:21.631Z,26.20
2018-06-10T16:39:50.225Z,26.30
2018-06-10T16:42:18.708Z,26.30
2018-06-10T16:44:47.207Z,26.20
2018-06-10T16:47:15.685Z,26.00
2018-06-10T16:49:44.197Z,25.90
2018-06-10T16:52:12.666Z,25.60
2018-06-10T16:57:09.286Z,25.30
2018-06-10T16:59:37.761Z,25.10
2018-06-10T17:02:06.219Z,25.10
2018-06-10T17:04:34.785Z,25.10
2018-06-10T17:09:31.398Z,25.20
2018-06-10T17:11:59.921Z,25.10
2018-06-10T17:14:28.417Z,25.00
2018-06-10T17:16:56.878Z,25.10
2018-06-10T17:19:26.433Z,25.00
2018-06-10T17:21:54.897Z,24.80
2018-06-10T17:24:23.419Z,24.80
2018-06-10T17:26:51.903Z,24.90
2018-06-10T17:29:20.387Z,25.10
2018-06-10T17:31:48.858Z,25.00
2018-06-10T17:34:17.412Z,24.90
2018-06-10T17:36:45.869Z,24.70
2018-06-10T17:41:42.511Z,24.60
2018-06-10T17:44:11.049Z,24.50
2018-06-10T17:46:39.549Z,24.40
2018-06-10T17:49:09.143Z,24.40
2018-06-10T17:51:37.628Z,24.20
2018-06-10T17:54:06.098Z,24.00
2018-06-10T17:56:34.588Z,23.80
2018-06-10T17:59:03.168Z,23.70
2018-06-10T18:01:31.668Z,23.60
2018-06-10T18:04:00.155Z,23.50
2018-06-10T18:06:28.700Z,23.40
2018-06-10T18:08:57.174Z,23.30
2018-06-10T18:11:25.625Z,23.30
2018-06-10T18:13:54.273Z,23.10
2018-06-10T18:16:22.768Z,23.00
2018-06-10T18:18:51.447Z,22.90
2018-06-10T18:21:20.124Z,22.80
2018-06-10T18:23:48.796Z,22.70
2018-06-10T18:26:17.247Z,22.60
2018-06-10T18:28:45.718Z,22.60
2018-06-10T18:31:14.199Z,22.50
2018-06-10T18:33:42.684Z,22.50
2018-06-10T18:36:11.184Z,22.40
2018-06-10T18:41:07.860Z,22.20
2018-06-10T18:43:36.479Z,22.10
2018-06-10T18:46:05.194Z,22.00
2018-06-10T18:48:33.697Z,22.00
2018-06-10T18:51:02.225Z,21.90
2018-06-10T18:53:30.695Z,21.80
2018-06-10T18:55:59.184Z,21.70
2018-06-10T18:58:27.634Z,21.60
2018-06-10T19:00:56.146Z,21.60
2018-06-10T19:03:24.657Z,21.50
2018-06-10T19:05:53.153Z,21.50
2018-06-10T19:08:21.853Z,21.40
2018-06-10T19:13:18.607Z,21.20
2018-06-10T19:18:15.302Z,21.10
2018-06-10T19:20:43.794Z,21.00
2018-06-10T19:23:12.372Z,21.00
2018-06-10T19:25:40.865Z,20.90
2018-06-10T19:28:09.397Z,20.90
2018-06-10T19:30:37.882Z,20.80
2018-06-10T19:33:06.402Z,20.70
2018-06-10T19:35:34.909Z,20.70
2018-06-10T19:38:03.445Z,20.60
2018-06-10T19:40:31.955Z,20.60
2018-06-10T19:43:00.430Z,20.60
2018-06-10T19:45:28.925Z,20.60
2018-06-10T19:47:57.493Z,20.60
2018-06-10T19:50:26.028Z,20.50
2018-06-10T19:52:54.588Z,20.50
2018-06-10T19:55:23.152Z,20.60
2018-06-10T19:57:51.708Z,20.50
2018-06-10T20:00:20.190Z,20.50
2018-06-10T20:05:16.931Z,20.50
2018-06-10T20:07:45.426Z,20.50
2018-06-10T20:10:13.962Z,20.40
2018-06-10T20:12:42.451Z,20.40
2018-06-10T20:15:11.002Z,20.30
2018-06-10T20:17:39.532Z,20.30
2018-06-10T20:20:08.081Z,20.30
2018-06-10T20:22:36.613Z,20.30
2018-06-10T20:25:05.424Z,20.30
2018-06-10T20:27:33.891Z,20.20
2018-06-10T20:32:30.649Z,20.20
2018-06-10T20:34:59.137Z,20.20
2018-06-10T20:37:27.679Z,20.20
2018-06-10T20:39:56.145Z,20.20
2018-06-10T20:42:24.663Z,20.20
2018-06-10T20:44:53.142Z,20.20
2018-06-10T20:47:21.773Z,20.30
2018-06-10T20:49:52.289Z,20.30
2018-06-10T20:52:20.744Z,20.30
2018-06-10T20:54:49.258Z,20.30
2018-06-10T20:57:17.695Z,20.20
2018-06-10T20:59:47.258Z,20.20
2018-06-10T21:02:15.715Z,20.20
2018-06-10T21:07:12.375Z,20.20
2018-06-10T21:09:40.848Z,20.20
2018-06-10T21:12:09.572Z,20.20
2018-06-10T21:14:38.062Z,20.20
2018-06-10T21:17:06.521Z,20.10
2018-06-10T21:22:03.203Z,20.10
2018-06-10T21:24:31.653Z,20.10
2018-06-10T21:29:29.309Z,20.10
2018-06-10T21:31:57.774Z,20.10
2018-06-10T21:34:26.272Z,20.20
2018-06-10T21:36:54.739Z,20.20
2018-06-10T21:39:23.442Z,20.20
2018-06-10T21:41:51.902Z,20.10
2018-06-10T21:44:20.383Z,20.20
2018-06-10T21:46:48.842Z,20.20
2018-06-10T21:49:17.296Z,20.20
2018-06-10T21:54:13.923Z,20.20
2018-06-10T21:56:42.390Z,20.10
2018-06-10T21:59:10.901Z,20.10
2018-06-10T22:01:39.394Z,20.00
2018-06-10T22:09:07.646Z,19.90
2018-06-10T22:11:36.281Z,19.80
2018-06-10T22:14:04.718Z,19.80
2018-06-10T22:16:33.433Z,19.70
2018-06-10T22:19:02.303Z,19.60
2018-06-10T22:21:30.990Z,19.60
2018-06-10T22:23:59.482Z,19.60
2018-06-10T22:26:27.936Z,19.50
2018-06-10T22:28:56.432Z,19.60
2018-06-10T22:31:24.869Z,19.60
2018-06-10T22:33:53.558Z,19.60
2018-06-10T22:38:51.473Z,19.60
2018-06-10T22:41:19.938Z,19.50
2018-06-10T22:43:48.386Z,19.50
2018-06-10T22:46:16.886Z,19.40
2018-06-10T22:48:45.377Z,19.40
2018-06-10T22:51:13.830Z,19.40
2018-06-10T22:54:17.266Z,19.30
2018-06-10T22:56:45.723Z,19.20
2018-06-10T23:01:42.330Z,19.20
2018-06-10T23:04:10.798Z,19.20
2018-06-10T23:06:39.254Z,19.20
2018-06-10T23:09:08.164Z,19.20
2018-06-10T23:11:36.620Z,19.10
2018-06-10T23:14:05.120Z,19.10
2018-06-10T23:16:33.573Z,19.00
2018-06-10T23:19:02.014Z,19.00
2018-06-10T23:21:30.488Z,19.00
2018-06-10T23:23:58.966Z,18.90
2018-06-10T23:26:27.489Z,18.90
2018-06-10T23:28:55.995Z,18.90
2018-06-10T23:31:24.443Z,18.90
2018-06-10T23:33:52.897Z,18.80
2018-06-10T23:36:21.373Z,18.80
2018-06-10T23:38:49.832Z,18.60
2018-06-10T23:41:18.245Z,18.60
2018-06-10T23:43:46.707Z,18.70
2018-06-10T23:46:15.186Z,18.60
2018-06-10T23:48:46.217Z,18.60
2018-06-10T23:53:42.801Z,18.60
2018-06-10T23:56:11.290Z,18.60
2018-06-10T23:58:39.761Z,18.60
